Time;durP1;ratioP1;P1;durP2;ratioP2;P2;SDS_P1;SDS_P2;PMS_P1;PMS_P2;Temp;Humidity;BMP_temperature;BMP_pressure;BME280_temperature;BME280_humidity;BME280_pressure;Samples;Min_cycle;Max_cycle;Signal;HPM_P1;HPM_P2
2023/06/03 00:00:22;;;;;;;0.25;0.20;;;;;;;10.65;64.79;101418.53;5186512;28;20528;-75
2023/06/03 00:02:53;;;;;;;0.63;0.30;;;;;;;10.84;63.83;101417.22;5203330;28;20510;-76
2023/06/03 00:05:23;;;;;;;1.48;0.40;;;;;;;10.56;64.07;101421.38;5199695;28;20087;-76
2023/06/03 00:07:53;;;;;;;2.22;0.32;;;;;;;10.64;63.30;101419.41;5200988;28;20025;-77
2023/06/03 00:10:24;;;;;;;1.88;0.57;;;;;;;10.71;62.87;101420.16;5202701;28;20047;-73
2023/06/03 00:12:54;;;;;;;0.68;0.30;;;;;;;11.02;62.47;101415.03;5209463;28;20368;-73
2023/06/03 00:15:24;;;;;;;0.63;0.38;;;;;;;10.91;62.41;101410.97;5205976;28;20033;-74
2023/06/03 00:17:55;;;;;;;3.25;0.60;;;;;;;10.97;62.96;101413.41;5206593;28;20127;-74
2023/06/03 00:20:28;;;;;;;0.68;0.25;;;;;;;10.92;62.82;101411.81;5204608;28;20044;-75
2023/06/03 00:22:58;;;;;;;0.28;0.13;;;;;;;10.84;63.70;101416.38;5211075;28;20119;-75
2023/06/03 00:25:28;;;;;;;1.98;0.50;;;;;;;10.69;64.51;101416.72;5207837;28;20116;-76
2023/06/03 00:27:59;;;;;;;3.67;0.40;;;;;;;10.67;63.30;101421.13;5202413;28;20021;-76
2023/06/03 00:30:31;;;;;;;0.55;0.20;;;;;;;10.45;65.50;101423.34;5203724;28;20044;-76
2023/06/03 00:33:02;;;;;;;4.60;0.30;;;;;;;10.11;68.20;101426.66;5210134;28;20257;-75
2023/06/03 00:35:33;;;;;;;0.80;0.30;;;;;;;10.15;67.10;101428.34;5208805;28;20387;-76
2023/06/03 00:38:03;;;;;;;0.52;0.32;;;;;;;9.92;68.77;101427.88;5210437;28;20170;-77
2023/06/03 00:40:34;;;;;;;0.55;0.30;;;;;;;9.92;68.80;101431.38;5203983;28;20029;-75
2023/06/03 00:43:04;;;;;;;1.20;0.40;;;;;;;9.88;68.90;101431.44;5194427;28;20179;-76
2023/06/03 00:45:35;;;;;;;2.80;0.47;;;;;;;9.76;69.46;101427.31;5209140;28;20068;-75
2023/06/03 00:48:05;;;;;;;1.92;0.47;;;;;;;9.64;69.13;101424.94;5209333;28;20040;-75
2023/06/03 00:50:37;;;;;;;0.73;0.40;;;;;;;9.70;69.40;101432.69;5195443;28;20573;-77
2023/06/03 00:53:07;;;;;;;2.25;0.50;;;;;;;9.41;70.27;101434.06;5209068;28;20381;-74
2023/06/03 00:55:38;;;;;;;1.42;0.40;;;;;;;9.73;69.52;101429.13;5205394;28;20550;-75
2023/06/03 00:58:09;;;;;;;2.35;0.68;;;;;;;9.69;70.26;101432.69;5208080;28;21436;-73
2023/06/03 01:00:39;;;;;;;1.23;0.30;;;;;;;9.61;70.39;101437.16;5210930;28;20479;-73
2023/06/03 01:03:13;;;;;;;1.40;0.47;;;;;;;9.68;69.56;101434.41;5207467;28;20029;-73
2023/06/03 01:05:46;;;;;;;2.28;0.50;;;;;;;9.67;69.98;101429.25;5205593;28;20104;-74
2023/06/03 01:08:31;;;;;;;0.55;0.32;;;;;;;9.87;69.87;101435.84;5192298;28;20029;-76
2023/06/03 01:11:02;;;;;;;3.08;0.32;;;;;;;9.71;70.01;101437.00;5205191;28;20115;-75
2023/06/03 01:13:42;;;;;;;2.23;0.50;;;;;;;9.49;71.32;101434.78;5205741;28;20112;-75
2023/06/03 01:16:17;;;;;;;0.98;0.40;;;;;;;9.31;71.94;101435.13;5195738;28;20268;-75
2023/06/03 01:18:48;;;;;;;1.70;0.93;;;;;;;9.21;71.91;101434.41;5210279;28;20524;-75
2023/06/03 01:21:19;;;;;;;1.30;0.43;;;;;;;9.15;72.69;101428.44;5208365;28;20091;-75
2023/06/03 01:23:49;;;;;;;1.35;0.50;;;;;;;9.17;72.34;101434.47;5212132;28;20125;-75
2023/06/03 01:26:22;;;;;;;1.23;0.57;;;;;;;8.88;74.22;101439.28;5210736;28;20026;-76
2023/06/03 01:28:52;;;;;;;2.83;0.40;;;;;;;8.94;74.81;101439.19;5208344;28;20025;-76
2023/06/03 01:31:23;;;;;;;0.88;0.40;;;;;;;9.09;74.40;101441.53;5209400;28;20418;-76
2023/06/03 01:33:54;;;;;;;0.88;0.50;;;;;;;8.91;74.76;101447.03;5204163;28;20043;-74
2023/06/03 01:36:24;;;;;;;1.20;0.50;;;;;;;8.63;75.93;101442.25;5213298;28;20037;-74
2023/06/03 01:38:55;;;;;;;0.73;0.40;;;;;;;8.32;78.27;101441.81;5210981;28;20021;-73
2023/06/03 01:41:25;;;;;;;2.20;0.60;;;;;;;8.29;77.95;101441.84;5207347;28;20029;-75
2023/06/03 01:43:56;;;;;;;1.40;0.45;;;;;;;8.00;78.96;101449.09;5214103;28;20417;-74
2023/06/03 01:46:26;;;;;;;0.85;0.43;;;;;;;8.24;78.45;101454.03;5208763;28;20403;-75
2023/06/03 01:48:56;;;;;;;4.40;0.40;;;;;;;8.31;77.62;101450.50;5207925;28;20028;-75
2023/06/03 01:51:27;;;;;;;0.57;0.38;;;;;;;8.03;79.03;101451.66;5195075;28;20087;-75
2023/06/03 01:53:57;;;;;;;2.17;0.50;;;;;;;7.71;79.96;101448.53;5203300;28;20442;-75
2023/06/03 01:56:27;;;;;;;0.93;0.43;;;;;;;8.01;78.94;101445.63;5206916;28;20159;-75
2023/06/03 01:58:58;;;;;;;0.57;0.32;;;;;;;8.01;80.01;101450.81;5202472;28;20021;-76
2023/06/03 02:01:28;;;;;;;0.35;0.30;;;;;;;8.08;78.44;101444.66;5206560;28;20033;-76
2023/06/03 02:03:58;;;;;;;0.70;0.30;;;;;;;7.72;78.94;101445.06;5210725;28;20031;-75
2023/06/03 02:06:28;;;;;;;1.17;0.30;;;;;;;7.77;80.96;101448.50;5198965;28;20032;-76
2023/06/03 02:08:59;;;;;;;1.00;0.40;;;;;;;7.75;80.21;101449.38;5197255;28;20455;-73
2023/06/03 02:11:29;;;;;;;1.17;0.40;;;;;;;7.57;83.11;101450.44;5194833;28;20045;-75
2023/06/03 02:13:59;;;;;;;1.05;0.50;;;;;;;7.63;82.06;101452.97;5204391;28;20037;-76
2023/06/03 02:16:30;;;;;;;1.23;0.40;;;;;;;7.88;79.45;101445.78;5192942;28;20168;-76
2023/06/03 02:19:03;;;;;;;2.13;0.47;;;;;;;7.71;81.42;101443.31;5188418;28;20545;-75
2023/06/03 02:21:33;;;;;;;2.60;0.50;;;;;;;7.42;82.13;101450.56;5201719;28;20520;-75
2023/06/03 02:24:05;;;;;;;1.02;0.40;;;;;;;7.84;80.41;101437.13;5201494;28;20021;-74
2023/06/03 02:26:38;;;;;;;0.95;0.50;;;;;;;7.87;79.70;101444.91;5202299;28;20494;-75
2023/06/03 02:29:09;;;;;;;1.13;0.43;;;;;;;7.70;80.30;101446.81;5191756;28;20033;-73
2023/06/03 02:31:39;;;;;;;1.52;0.50;;;;;;;7.51;80.17;101447.88;5202816;28;20084;-75
2023/06/03 02:34:10;;;;;;;1.30;0.50;;;;;;;7.32;82.36;101451.50;5202373;28;20103;-74
2023/06/03 02:36:40;;;;;;;1.10;0.40;;;;;;;7.18;83.91;101454.22;5199946;28;20326;-76
2023/06/03 02:39:11;;;;;;;0.95;0.40;;;;;;;7.15;83.46;101460.34;5190841;28;20108;-73
2023/06/03 02:41:43;;;;;;;0.30;0.30;;;;;;;7.52;81.83;101467.81;5199645;28;20048;-72
2023/06/03 02:44:14;;;;;;;3.10;0.55;;;;;;;7.13;84.25;101476.81;5197530;28;20029;-76
2023/06/03 02:46:45;;;;;;;1.25;0.50;;;;;;;7.25;83.67;101459.38;5196251;28;20048;-75
2023/06/03 02:49:15;;;;;;;0.95;0.40;;;;;;;7.06;84.63;101469.91;5195476;28;20029;-76
2023/06/03 02:51:45;;;;;;;0.60;0.40;;;;;;;6.98;83.37;101474.31;5185644;28;20344;-73
2023/06/03 02:54:15;;;;;;;0.52;0.30;;;;;;;6.99;82.94;101470.84;5198293;28;20029;-75
2023/06/03 02:56:46;;;;;;;1.30;0.60;;;;;;;7.04;82.84;101474.25;5206018;28;20024;-75
2023/06/03 02:59:17;;;;;;;2.85;0.73;;;;;;;6.77;85.51;101469.25;5202732;28;20083;-72
2023/06/03 03:01:47;;;;;;;0.85;0.35;;;;;;;7.12;84.45;101467.28;5194356;28;20040;-72
2023/06/03 03:04:18;;;;;;;1.90;0.55;;;;;;;6.90;85.19;101471.75;5187266;28;20013;-74
2023/06/03 03:06:49;;;;;;;0.70;0.45;;;;;;;7.15;82.88;101467.25;5207334;28;20453;-72
2023/06/03 03:09:19;;;;;;;2.03;1.05;;;;;;;7.33;83.29;101468.84;5202109;28;20029;-74
2023/06/03 03:11:50;;;;;;;2.92;1.20;;;;;;;7.00;83.38;101468.25;5205707;28;20044;-74
2023/06/03 03:14:20;;;;;;;2.05;0.60;;;;;;;7.02;84.88;101468.22;5199683;28;20479;-76
2023/06/03 03:16:51;;;;;;;1.00;0.40;;;;;;;7.13;84.89;101466.41;5201911;28;20381;-72
2023/06/03 03:19:21;;;;;;;2.72;0.60;;;;;;;7.44;83.17;101472.22;5191437;28;20025;-75
2023/06/03 03:21:51;;;;;;;1.20;0.60;;;;;;;7.09;82.89;101472.50;5192294;28;20060;-75
2023/06/03 03:24:24;;;;;;;2.17;0.95;;;;;;;7.31;83.31;101470.59;5191159;28;20033;-75
2023/06/03 03:26:54;;;;;;;1.33;0.45;;;;;;;7.43;82.49;101474.81;5199756;28;20079;-74
2023/06/03 03:29:25;;;;;;;0.75;0.40;;;;;;;7.28;82.05;101471.50;5193980;28;20304;-75
2023/06/03 03:32:04;;;;;;;0.70;0.40;;;;;;;7.43;82.61;101477.41;5203023;28;20132;-72
2023/06/03 03:34:36;;;;;;;21.33;7.78;;;;;;;7.19;83.55;101479.34;5198178;28;20064;-75
2023/06/03 03:37:11;;;;;;;9.02;2.60;;;;;;;6.94;83.24;101467.41;5200033;28;20395;-75
2023/06/03 03:39:41;;;;;;;6.63;1.63;;;;;;;6.98;86.26;101470.00;5205676;28;20382;-75
2023/06/03 03:42:11;;;;;;;3.17;1.17;;;;;;;6.89;85.60;101472.63;5207213;28;20028;-75
2023/06/03 03:44:41;;;;;;;1.02;0.50;;;;;;;6.76;87.29;101468.38;5193900;28;20103;-75
2023/06/03 03:47:21;;;;;;;2.17;0.50;;;;;;;7.32;85.71;101464.50;5310085;23;20025;-68
2023/06/03 03:49:52;;;;;;;1.17;0.60;;;;;;;7.34;84.52;101469.72;5179335;28;20041;-70
2023/06/03 03:52:30;;;;;;;4.15;0.43;;;;;;;7.39;85.21;101470.53;5185390;28;20466;-70
2023/06/03 03:55:01;;;;;;;0.85;0.50;;;;;;;7.73;83.56;101464.16;5177692;28;20041;-70
2023/06/03 03:57:34;;;;;;;2.17;0.60;;;;;;;7.86;82.22;101461.38;5169627;28;20041;-70
2023/06/03 04:00:09;;;;;;;3.90;0.80;;;;;;;7.67;84.46;101462.47;5165391;28;20101;-70
2023/06/03 04:02:41;;;;;;;0.85;0.43;;;;;;;7.97;83.64;101469.97;5166269;28;20406;-70
2023/06/03 04:05:13;;;;;;;3.60;0.75;;;;;;;7.80;84.47;101464.06;5158710;28;20391;-70
2023/06/03 04:07:46;;;;;;;2.25;0.70;;;;;;;7.46;86.28;101478.28;5154119;28;20117;-70
2023/06/03 04:10:20;;;;;;;2.63;0.70;;;;;;;7.99;82.90;101473.41;5153941;28;20180;-70
2023/06/03 04:12:50;;;;;;;3.67;0.70;;;;;;;8.30;80.85;101471.34;5155814;28;20022;-69
2023/06/03 04:15:24;;;;;;;1.83;0.70;;;;;;;8.89;78.83;101471.44;5164571;28;20044;-70
2023/06/03 04:17:54;;;;;;;8.70;0.70;;;;;;;8.69;78.00;101469.09;5159499;28;20030;-69
2023/06/03 04:20:45;;;;;;;2.88;0.90;;;;;;;8.61;79.76;101464.84;5167048;28;20037;-70
2023/06/03 04:23:17;;;;;;;3.97;0.65;;;;;;;9.00;77.35;101465.16;5155637;28;20104;-70
2023/06/03 04:25:48;;;;;;;1.48;0.60;;;;;;;9.19;75.26;101458.78;5163399;28;20018;-70
2023/06/03 04:28:19;;;;;;;1.55;0.57;;;;;;;9.31;75.46;101467.25;5165876;28;20014;-70
2023/06/03 04:30:49;;;;;;;4.18;0.60;;;;;;;9.53;75.07;101462.56;5163888;28;20031;-70
2023/06/03 04:33:20;;;;;;;1.60;0.50;;;;;;;9.57;75.15;101465.09;5165267;28;20484;-70
2023/06/03 04:35:51;;;;;;;1.95;0.50;;;;;;;9.79;74.67;101461.19;5163356;28;20554;-70
2023/06/03 04:38:21;;;;;;;3.15;1.17;;;;;;;10.93;70.57;101461.47;5166469;28;20018;-70
2023/06/03 04:40:53;;;;;;;1.42;0.50;;;;;;;12.75;67.00;101452.16;5164093;28;20034;-70
2023/06/03 04:43:24;;;;;;;3.38;0.70;;;;;;;14.31;60.96;101442.50;5165755;28;20026;-71
2023/06/03 04:45:55;;;;;;;2.13;0.68;;;;;;;16.71;57.03;101435.81;5160984;28;20026;-71
2023/06/03 04:48:25;;;;;;;2.55;0.70;;;;;;;17.35;54.33;101427.38;5166191;28;20048;-69
2023/06/03 04:50:55;;;;;;;1.48;0.47;;;;;;;18.50;54.91;101431.84;5163815;28;20085;-70
2023/06/03 04:53:26;;;;;;;0.93;0.40;;;;;;;17.91;53.01;101433.25;5165283;28;20060;-70
2023/06/03 04:55:56;;;;;;;1.02;0.40;;;;;;;19.87;51.65;101430.91;5156738;28;20609;-70
2023/06/03 04:58:26;;;;;;;0.80;0.40;;;;;;;21.16;48.36;101418.22;5149984;28;20018;-70
2023/06/03 05:00:56;;;;;;;0.47;0.30;;;;;;;21.29;47.35;101419.13;5155036;28;20281;-70
2023/06/03 05:03:27;;;;;;;1.73;0.50;;;;;;;19.25;50.17;101431.09;5154520;28;20698;-70
2023/06/03 05:05:57;;;;;;;2.80;0.57;;;;;;;21.83;47.10;101414.56;5159752;28;20301;-71
2023/06/03 05:08:28;;;;;;;2.03;0.68;;;;;;;22.25;45.39;101416.94;5153209;28;20293;-71
2023/06/03 05:10:58;;;;;;;1.20;0.53;;;;;;;22.62;45.89;101416.06;5160038;28;20381;-72
2023/06/03 05:13:28;;;;;;;2.17;0.50;;;;;;;22.58;46.20;101415.41;5164900;28;20288;-71
2023/06/03 05:15:58;;;;;;;1.40;0.50;;;;;;;21.44;47.33;101417.25;5164490;28;20496;-71
2023/06/03 05:18:29;;;;;;;1.03;0.43;;;;;;;21.16;47.17;101414.69;5157983;28;20077;-71
2023/06/03 05:20:59;;;;;;;1.35;0.60;;;;;;;21.26;47.59;101419.31;5155197;28;20373;-71
2023/06/03 05:23:29;;;;;;;1.13;0.63;;;;;;;22.06;46.41;101411.19;5164724;28;20117;-72
2023/06/03 05:26:00;;;;;;;1.95;0.40;;;;;;;21.79;46.60;101415.75;5163981;28;20117;-71
2023/06/03 05:28:30;;;;;;;1.05;0.50;;;;;;;21.14;47.46;101416.63;5165064;28;20103;-71
2023/06/03 05:31:00;;;;;;;2.70;0.70;;;;;;;21.34;47.82;101417.00;5164163;28;20032;-71
2023/06/03 05:33:32;;;;;;;1.03;0.40;;;;;;;21.36;47.84;101428.41;5163900;28;20468;-70
2023/06/03 05:36:03;;;;;;;3.03;0.60;;;;;;;21.67;48.00;101421.91;5159179;28;20793;-71
2023/06/03 05:38:33;;;;;;;1.63;0.40;;;;;;;21.20;48.81;101425.03;5156368;28;20030;-71
2023/06/03 05:41:04;;;;;;;1.02;0.40;;;;;;;22.12;47.44;101432.06;5153087;28;20428;-70
2023/06/03 05:43:34;;;;;;;2.00;0.68;;;;;;;20.98;48.65;101435.38;5186901;28;20032;-71
2023/06/03 05:46:04;;;;;;;0.75;0.43;;;;;;;21.16;47.87;101438.63;5171021;28;20081;-71
2023/06/03 05:48:35;;;;;;;0.93;0.47;;;;;;;21.06;48.36;101438.38;5170093;28;20022;-71
2023/06/03 05:51:05;;;;;;;2.25;0.50;;;;;;;19.35;50.24;101448.19;5168750;28;20046;-71
2023/06/03 05:53:38;;;;;;;5.53;0.60;;;;;;;19.59;50.96;101441.44;5159729;28;20030;-71
2023/06/03 05:56:08;;;;;;;2.55;0.70;;;;;;;18.37;54.06;101443.19;5156842;28;20273;-71
2023/06/03 05:58:38;;;;;;;1.87;0.70;;;;;;;17.73;54.94;101452.72;5156932;28;20080;-71
2023/06/03 06:01:08;;;;;;;1.65;0.60;;;;;;;15.99;57.88;101458.41;5158954;28;21576;-71
2023/06/03 06:03:39;;;;;;;0.93;0.50;;;;;;;17.16;57.83;101452.97;5166445;28;20026;-70
2023/06/03 06:06:09;;;;;;;1.10;0.60;;;;;;;17.05;56.85;101444.69;5166602;28;20085;-71
2023/06/03 06:08:40;;;;;;;1.67;0.60;;;;;;;17.02;57.06;101444.84;5166463;28;20022;-71
2023/06/03 06:11:10;;;;;;;2.13;0.70;;;;;;;17.50;57.23;101442.47;5168313;28;20058;-71
2023/06/03 06:13:41;;;;;;;1.65;0.60;;;;;;;18.59;54.46;101433.13;5161980;28;20100;-71
2023/06/03 06:16:11;;;;;;;4.25;0.80;;;;;;;19.08;52.69;101431.16;5161772;28;20121;-71
2023/06/03 06:18:42;;;;;;;9.10;0.80;;;;;;;19.07;52.92;101425.97;5155269;28;20113;-71
2023/06/03 06:21:14;;;;;;;2.92;0.68;;;;;;;18.89;51.83;101435.78;5152844;28;20030;-70
2023/06/03 06:23:45;;;;;;;1.55;0.60;;;;;;;19.21;52.45;101434.88;5155709;28;20033;-71
2023/06/03 06:26:16;;;;;;;2.72;0.77;;;;;;;18.89;51.60;101426.97;5157773;28;20033;-71
2023/06/03 06:28:46;;;;;;;5.10;0.70;;;;;;;19.88;51.36;101419.34;5157821;28;20030;-71
2023/06/03 06:31:17;;;;;;;1.48;0.60;;;;;;;18.97;53.17;101430.91;5163509;28;20042;-71
2023/06/03 06:33:48;;;;;;;6.72;0.75;;;;;;;19.94;51.51;101431.41;5159857;28;20038;-70
2023/06/03 06:36:30;;;;;;;1.55;0.70;;;;;;;20.31;50.12;101423.75;5165091;28;20088;-70
2023/06/03 06:39:00;;;;;;;2.95;0.50;;;;;;;20.71;50.48;101425.63;5164078;28;20369;-70
2023/06/03 06:41:36;;;;;;;12.23;0.95;;;;;;;21.54;49.24;101418.34;5168547;28;20032;-71
2023/06/03 06:44:07;;;;;;;1.20;0.43;;;;;;;21.95;46.59;101429.72;5165452;28;20038;-70
2023/06/03 06:46:37;;;;;;;2.40;0.70;;;;;;;21.72;48.02;101420.63;5168281;28;20088;-70
2023/06/03 06:49:09;;;;;;;1.67;0.60;;;;;;;21.11;47.98;101423.00;5166171;28;20036;-70
2023/06/03 06:51:39;;;;;;;3.38;0.50;;;;;;;20.71;50.38;101413.19;5164714;28;20025;-70
2023/06/03 06:54:10;;;;;;;2.22;0.70;;;;;;;21.84;47.95;101410.97;5166325;28;20041;-71
2023/06/03 06:56:40;;;;;;;5.05;0.70;;;;;;;22.82;46.71;101403.00;5165812;28;20116;-71
2023/06/03 06:59:10;;;;;;;2.47;0.50;;;;;;;22.47;46.37;101411.81;5165319;28;20291;-71
2023/06/03 07:01:41;;;;;;;4.17;0.80;;;;;;;22.63;45.24;101407.09;5166666;28;20037;-71
2023/06/03 07:04:11;;;;;;;2.15;0.43;;;;;;;23.01;46.21;101408.69;5164838;28;20835;-70
2023/06/03 07:06:41;;;;;;;1.48;0.77;;;;;;;22.93;45.23;101411.91;5166870;28;20103;-71
2023/06/03 07:09:11;;;;;;;1.60;0.50;;;;;;;23.18;44.88;101408.34;5145477;28;20701;-70
2023/06/03 07:11:46;;;;;;;3.00;0.80;;;;;;;22.86;45.55;101415.97;5156477;28;20462;-71
2023/06/03 07:14:16;;;;;;;1.13;0.50;;;;;;;22.98;43.44;101409.75;5154738;28;20293;-70
2023/06/03 07:16:48;;;;;;;0.77;0.38;;;;;;;22.59;42.68;101410.97;5155832;28;20629;-71
2023/06/03 07:19:18;;;;;;;1.50;0.60;;;;;;;22.39;45.38;101409.69;5154581;28;20030;-71
2023/06/03 07:21:51;;;;;;;1.53;0.40;;;;;;;21.68;44.98;101421.81;5163257;28;20049;-70
2023/06/03 07:24:21;;;;;;;2.78;0.40;;;;;;;21.97;44.86;101418.03;5166158;28;20276;-71
2023/06/03 07:26:52;;;;;;;1.40;0.40;;;;;;;21.73;45.07;101424.16;5163655;28;20468;-70
2023/06/03 07:29:22;;;;;;;2.10;0.40;;;;;;;20.89;44.26;101421.84;5159187;28;20037;-71
2023/06/03 07:31:52;;;;;;;1.40;0.50;;;;;;;21.41;43.52;101420.97;5154924;28;20289;-71
2023/06/03 07:34:23;;;;;;;2.28;0.40;;;;;;;21.44;44.69;101427.88;5162530;28;20298;-71
2023/06/03 07:37:00;;;;;;;0.95;0.47;;;;;;;20.56;43.72;101423.94;5162260;28;20026;-70
2023/06/03 07:39:32;;;;;;;4.05;1.10;;;;;;;20.25;45.41;101421.50;5165049;28;20026;-70
2023/06/03 07:42:10;;;;;;;1.40;0.40;;;;;;;21.48;44.49;101426.72;5153978;28;20423;-70
2023/06/03 07:44:43;;;;;;;2.25;0.40;;;;;;;22.31;42.90;101424.50;5148898;28;20038;-71
2023/06/03 07:47:15;;;;;;;1.13;0.50;;;;;;;21.86;42.37;101425.88;5151827;28;20673;-70
2023/06/03 07:49:47;;;;;;;1.17;0.32;;;;;;;21.79;42.18;101423.75;5154900;28;20100;-71
2023/06/03 07:52:19;;;;;;;0.82;0.20;;;;;;;22.45;41.89;101419.06;5166055;28;20297;-70
2023/06/03 07:54:49;;;;;;;2.40;0.40;;;;;;;22.04;43.17;101431.72;5159160;28;20114;-70
2023/06/03 07:57:19;;;;;;;0.85;0.30;;;;;;;23.56;41.09;101420.47;5154844;28;20424;-71
2023/06/03 07:59:53;;;;;;;2.87;0.40;;;;;;;22.64;42.69;101430.13;5162019;28;20108;-71
2023/06/03 08:02:23;;;;;;;0.93;0.30;;;;;;;22.60;43.03;101432.16;5160284;28;20351;-70
2023/06/03 08:04:55;;;;;;;0.70;0.37;;;;;;;22.48;41.19;101437.50;5159144;28;20141;-70
2023/06/03 08:07:27;;;;;;;1.73;0.50;;;;;;;20.78;42.22;101434.91;5155636;28;20509;-70
2023/06/03 08:09:58;;;;;;;2.72;0.50;;;;;;;21.94;42.02;101430.69;5160139;28;20033;-70
2023/06/03 08:12:34;;;;;;;1.23;0.30;;;;;;;21.69;41.49;101425.31;5165778;28;20655;-71
2023/06/03 08:15:05;;;;;;;0.93;0.40;;;;;;;21.54;41.84;101429.00;5163517;28;20030;-70
2023/06/03 08:17:40;;;;;;;0.95;0.50;;;;;;;22.96;41.63;101417.03;5155312;28;20034;-70
2023/06/03 08:20:12;;;;;;;1.60;0.40;;;;;;;23.85;41.94;101413.81;5160439;28;20034;-71
2023/06/03 08:22:43;;;;;;;1.95;0.50;;;;;;;24.98;39.57;101408.25;5162695;28;20330;-70
2023/06/03 08:25:14;;;;;;;0.93;0.30;;;;;;;25.46;40.38;101413.06;5166312;28;20160;-71
2023/06/03 08:27:45;;;;;;;1.95;0.40;;;;;;;25.98;38.63;101412.22;5160208;28;20026;-71
2023/06/03 08:30:16;;;;;;;0.70;0.40;;;;;;;25.34;38.44;101400.69;5164336;28;20040;-70
2023/06/03 08:32:47;;;;;;;0.90;0.40;;;;;;;23.92;38.59;101409.72;5165778;28;20484;-71
2023/06/03 08:35:21;;;;;;;0.57;0.40;;;;;;;22.77;39.95;101418.47;5161637;28;20069;-70
2023/06/03 08:37:52;;;;;;;2.42;0.45;;;;;;;25.08;37.62;101410.03;5155543;28;20034;-71
2023/06/03 08:40:25;;;;;;;2.17;0.40;;;;;;;23.74;39.86;101424.41;5159438;28;20674;-71
2023/06/03 08:43:02;;;;;;;0.70;0.40;;;;;;;22.61;39.39;101425.03;5158953;28;20045;-71
2023/06/03 08:46:03;;;;;;;0.75;0.40;;;;;;;24.46;38.58;101408.03;5166566;28;20057;-71
2023/06/03 08:48:46;;;;;;;0.73;0.28;;;;;;;22.81;39.06;101425.31;5173888;28;20033;-71
2023/06/03 08:51:21;;;;;;;1.00;0.40;;;;;;;22.68;39.32;101414.66;5163780;28;20729;-71
2023/06/03 08:53:52;;;;;;;0.50;0.30;;;;;;;22.30;40.51;101417.47;5160771;28;20040;-71
2023/06/03 08:56:25;;;;;;;2.00;0.35;;;;;;;24.49;37.44;101409.59;5165291;28;20100;-70
2023/06/03 08:59:01;;;;;;;0.80;0.38;;;;;;;25.57;37.46;101402.31;5157665;28;20403;-71
2023/06/03 09:01:35;;;;;;;;;;;;;;;24.63;37.84;101410.25;5164814;28;20042;-71
2023/06/03 09:04:06;;;;;;;0.32;0.32;;;;;;;25.20;37.66;101411.72;5160169;28;19929;-70
2023/06/03 09:06:42;;;;;;;1.40;0.40;;;;;;;24.83;38.25;101412.16;5159715;28;20041;-70
2023/06/03 09:09:15;;;;;;;2.58;0.40;;;;;;;25.14;37.99;101398.81;5162469;28;20821;-71
2023/06/03 09:11:46;;;;;;;3.13;0.50;;;;;;;25.35;37.75;101398.88;5162183;28;20297;-70
2023/06/03 09:14:18;;;;;;;2.65;0.50;;;;;;;23.98;39.33;101406.56;5148956;28;20030;-70
2023/06/03 09:16:48;;;;;;;1.98;0.50;;;;;;;25.35;38.31;101397.03;5161297;28;20034;-70
2023/06/03 09:19:19;;;;;;;6.25;0.52;;;;;;;27.41;35.66;101391.09;5165820;28;20018;-71
2023/06/03 09:21:50;;;;;;;1.35;0.40;;;;;;;27.04;36.38;101400.78;5158724;28;20512;-70
2023/06/03 09:24:20;;;;;;;1.10;0.30;;;;;;;23.10;38.87;101413.34;5168899;28;20034;-71
2023/06/03 09:26:52;;;;;;;0.77;0.37;;;;;;;25.90;37.88;101401.28;5165314;28;20038;-70
2023/06/03 09:29:23;;;;;;;1.98;0.40;;;;;;;24.04;39.16;101413.25;5167985;28;20292;-70
2023/06/03 09:31:53;;;;;;;1.10;0.47;;;;;;;23.91;39.63;101402.63;5168358;28;20030;-71
2023/06/03 09:34:26;;;;;;;2.58;0.30;;;;;;;23.52;39.08;101407.50;5158894;28;20504;-70
2023/06/03 09:36:56;;;;;;;1.10;0.35;;;;;;;24.63;38.24;101396.00;5155153;28;20109;-70
2023/06/03 09:39:32;;;;;;;2.63;0.40;;;;;;;24.67;38.59;101392.97;5155969;28;20027;-72
2023/06/03 09:42:03;;;;;;;0.30;0.30;;;;;;;25.28;36.26;101392.38;5156006;28;20048;-71
2023/06/03 09:44:54;;;;;;;2.15;0.40;;;;;;;25.57;37.76;101390.75;5157686;28;20031;-71
2023/06/03 09:47:34;;;;;;;1.33;0.50;;;;;;;23.55;39.60;101393.91;5154684;28;20043;-68
2023/06/03 09:52:37;;;;;;;1.35;0.40;;;;;;;24.58;37.92;101377.66;5189695;28;20056;-76
2023/06/03 09:55:10;;;;;;;1.47;0.33;;;;;;;21.99;39.90;101404.56;5189115;28;20025;-74
2023/06/03 09:57:41;;;;;;;0.60;0.25;;;;;;;22.01;41.37;101400.00;5190363;28;20292;-75
2023/06/03 10:00:12;;;;;;;0.63;0.30;;;;;;;21.92;40.74;101398.81;5174293;28;20034;-75
2023/06/03 10:02:44;;;;;;;4.68;0.47;;;;;;;21.36;40.05;101395.63;5173709;28;20169;-73
2023/06/03 10:05:30;;;;;;;0.38;0.30;;;;;;;23.44;37.97;101386.72;5163535;28;20049;-77
2023/06/03 10:08:01;;;;;;;;;;;;;;;23.27;37.71;101388.94;5167610;28;20070;-76
2023/06/03 10:10:33;;;;;;;0.60;0.38;;;;;;;23.16;36.89;101376.41;5172669;28;20171;-75
2023/06/03 10:13:20;;;;;;;0.63;0.40;;;;;;;21.71;37.80;101388.81;5171717;28;20034;-75
2023/06/03 10:15:52;;;;;;;1.00;0.43;;;;;;;21.10;39.52;101396.50;5164032;28;20026;-75
2023/06/03 10:18:40;;;;;;;3.17;0.40;;;;;;;21.72;40.32;101387.88;5163702;28;20092;-76
2023/06/03 10:21:12;;;;;;;1.30;0.38;;;;;;;21.80;38.67;101382.84;5168910;28;20535;-75
2023/06/03 10:23:42;;;;;;;1.05;0.30;;;;;;;21.26;40.84;101382.06;5174996;28;20044;-75
2023/06/03 10:26:13;;;;;;;0.82;0.30;;;;;;;21.16;40.75;101380.13;5173581;28;20030;-75
2023/06/03 10:28:46;;;;;;;0.75;0.30;;;;;;;21.26;40.75;101384.72;5172871;28;20132;-75
2023/06/03 10:31:16;;;;;;;2.22;0.50;;;;;;;20.81;40.77;101389.53;5168609;28;20049;-75
2023/06/03 10:33:47;;;;;;;0.85;0.38;;;;;;;20.84;39.33;101368.09;5172562;28;20034;-76
2023/06/03 10:36:20;;;;;;;1.33;0.28;;;;;;;21.31;39.39;101368.47;5174134;28;20538;-73
2023/06/03 10:38:51;;;;;;;0.90;0.40;;;;;;;21.14;40.60;101376.72;5171092;28;20026;-73
2023/06/03 10:41:22;;;;;;;1.10;0.43;;;;;;;20.48;40.38;101367.78;5173760;28;20104;-72
2023/06/03 10:43:53;;;;;;;0.47;0.30;;;;;;;19.87;42.28;101383.16;5168523;28;20101;-76
2023/06/03 10:46:24;;;;;;;0.45;0.30;;;;;;;19.55;40.95;101370.97;5168300;28;20034;-73
2023/06/03 10:48:55;;;;;;;0.75;0.30;;;;;;;20.59;41.56;101373.28;5161154;28;20635;-74
2023/06/03 10:51:38;;;;;;;0.82;0.30;;;;;;;20.80;41.88;101369.22;5166606;28;20034;-73
2023/06/03 10:54:24;;;;;;;0.70;0.30;;;;;;;20.37;41.14;101372.06;5172945;28;20076;-75
2023/06/03 10:57:06;;;;;;;0.75;0.40;;;;;;;20.34;42.05;101359.88;5167732;28;20025;-75
2023/06/03 10:59:42;;;;;;;1.20;0.35;;;;;;;20.04;42.11;101364.44;5172730;28;20034;-76
2023/06/03 11:02:13;;;;;;;0.30;0.20;;;;;;;19.97;41.46;101363.03;5171810;28;20520;-73
2023/06/03 11:04:43;;;;;;;0.75;0.40;;;;;;;20.39;40.12;101355.09;5168232;28;20065;-75
2023/06/03 11:07:33;;;;;;;1.95;0.40;;;;;;;20.72;42.41;101352.94;5169772;28;20034;-72
2023/06/03 11:10:36;;;;;;;1.60;0.32;;;;;;;20.80;42.35;101346.19;5165377;28;20050;-75
2023/06/03 11:13:07;;;;;;;2.63;0.50;;;;;;;20.81;40.98;101350.53;5163975;28;20036;-75
2023/06/03 11:16:00;;;;;;;1.15;0.40;;;;;;;20.49;40.68;101353.53;5174267;28;20507;-76
2023/06/03 11:18:31;;;;;;;1.10;0.40;;;;;;;20.76;40.31;101341.16;5171760;28;20061;-74
2023/06/03 11:21:01;;;;;;;0.57;0.40;;;;;;;20.48;42.41;101346.53;5171292;28;20302;-75
2023/06/03 11:23:45;;;;;;;1.92;0.40;;;;;;;20.47;41.34;101341.34;5171817;28;20384;-75
2023/06/03 11:26:35;;;;;;;0.35;0.30;;;;;;;19.67;42.34;101340.19;5170309;28;20045;-72
2023/06/03 11:29:06;;;;;;;4.53;0.63;;;;;;;20.38;42.09;101339.25;5167394;28;20044;-74
2023/06/03 11:31:37;;;;;;;1.88;0.55;;;;;;;20.64;42.15;101333.97;5171622;28;20492;-77
2023/06/03 11:34:25;;;;;;;1.88;0.40;;;;;;;19.80;42.93;101344.66;5170722;28;20037;-75
2023/06/03 11:36:56;;;;;;;0.50;0.30;;;;;;;20.00;41.77;101344.31;5166905;28;20080;-72
2023/06/03 11:39:26;;;;;;;0.93;0.45;;;;;;;20.70;42.09;101331.78;5172999;28;20120;-75
2023/06/03 11:42:01;;;;;;;1.15;0.30;;;;;;;20.36;43.29;101335.84;5168934;28;20527;-75
2023/06/03 11:44:33;;;;;;;2.45;0.40;;;;;;;20.32;42.94;101337.84;5171681;28;20033;-73
2023/06/03 11:47:04;;;;;;;2.50;0.50;;;;;;;20.28;41.27;101336.31;5157960;28;20576;-76
2023/06/03 11:49:37;;;;;;;2.75;0.40;;;;;;;20.23;43.35;101327.81;5156488;28;20034;-75
2023/06/03 11:52:09;;;;;;;0.47;0.38;;;;;;;20.15;42.43;101339.88;5161505;28;20095;-74
2023/06/03 11:54:45;;;;;;;1.10;0.50;;;;;;;20.70;42.84;101330.94;5160495;28;20073;-75